Terminal Aerodrome Forecast
Issued by NWS

Home | Current Version | Previous Version | Graphics & Text | Print | Product List | Glossary On
Versions: 1 2 3 4 5 6 7 8 9 10 11 12 13 14 15 16 17
000
FTUS41 KCLE 240700 AAA
TAFFDY
TAF AMD
KFDY 240722Z 2407/2506 18015G25KT 6SM -SHRA SCT009 OVC015
     FM240800 20015G25KT P6SM VCSH BKN015 OVC020
      TEMPO 2408/2412 4SM -SHRA
     FM241600 25028G42KT P6SM OVC025
      TEMPO 2416/2418 3SM -SHRA
     FM242300 24022G32KT P6SM OVC035=

USA.gov is the U.S. government's official web portal to all federal, state and local government web resources and services.